Observations

86.9 °F / 30.5 °C
E at 9 MPH
72%
76.8°F / 24.9 °C
29.86" (1011 mb)
10 mile(s)
partly cloudy
2021.10.25 2300 UTC

Observations

Surface


Raw METARs

2021/10/25 23:00
PKWA 252300Z AUTO 08008KT 10SM SCT024 31/25 A2986 RMK AO2 T03050249

Translated METAR

Kwajalein, Bucholz AAF, Kwajalein KMR ATOL Airport, Marshall Islands (PKWA) 08-43N 167-44E 2M
Oct 25, 2021 - 07:00 PM EDT / 2021.10.25 2300 UTC
Wind: from the E (080 degrees) at 9 MPH (8 KT):0
Visibility: 10 mile(s):0
Sky conditions: partly cloudy
Temperature: 86.9 F (30.5 C)
Heat index: 98.2 F (36.8 C):1
Dew Point: 76.8 F (24.9 C)
Relative Humidity: 72%
Pressure (altimeter): 29.86 in. Hg (1011 hPa)
ob: PKWA 252300Z AUTO 08008KT 10SM SCT024 31/25 A2986 RMK AO2 T03050249
cycle: 23



Upper Air


Latest Skew-T

Skew T Diagram

Latest Data File